sensor_id;sensor_type;location;lat;lon;timestamp;P1;durP1;ratioP1;P2;durP2;ratioP2
68942;SDS011;60852;52.190;4.422;2022-09-01T00:01:27;2.27;;;2.27;;
68942;SDS011;60852;52.190;4.422;2022-09-01T00:03:54;2.13;;;2.13;;
68942;SDS011;60852;52.190;4.422;2022-09-01T00:06:23;2.26;;;2.26;;
68942;SDS011;60852;52.190;4.422;2022-09-01T00:08:52;2.30;;;2.30;;
68942;SDS011;60852;52.190;4.422;2022-09-01T00:11:21;2.17;;;2.17;;
68942;SDS011;60852;52.190;4.422;2022-09-01T00:13:50;2.40;;;2.40;;
68942;SDS011;60852;52.190;4.422;2022-09-01T00:16:20;2.38;;;2.38;;
68942;SDS011;60852;52.190;4.422;2022-09-01T00:18:47;2.54;;;2.54;;
68942;SDS011;60852;52.190;4.422;2022-09-01T00:21:16;2.20;;;2.20;;
68942;SDS011;60852;52.190;4.422;2022-09-01T00:23:44;2.46;;;2.46;;
68942;SDS011;60852;52.190;4.422;2022-09-01T00:26:10;2.39;;;2.39;;
68942;SDS011;60852;52.190;4.422;2022-09-01T00:28:37;2.32;;;2.32;;
68942;SDS011;60852;52.190;4.422;2022-09-01T00:31:04;2.55;;;2.55;;
68942;SDS011;60852;52.190;4.422;2022-09-01T00:33:34;2.51;;;2.51;;
68942;SDS011;60852;52.190;4.422;2022-09-01T00:36:00;2.50;;;2.50;;
68942;SDS011;60852;52.190;4.422;2022-09-01T00:38:26;2.47;;;2.47;;
68942;SDS011;60852;52.190;4.422;2022-09-01T00:40:52;2.55;;;2.55;;
68942;SDS011;60852;52.190;4.422;2022-09-01T00:43:23;2.56;;;2.56;;
68942;SDS011;60852;52.190;4.422;2022-09-01T00:46:06;2.57;;;2.57;;
68942;SDS011;60852;52.190;4.422;2022-09-01T00:48:34;2.83;;;2.83;;
68942;SDS011;60852;52.190;4.422;2022-09-01T00:51:00;2.73;;;2.73;;
68942;SDS011;60852;52.190;4.422;2022-09-01T00:53:27;2.88;;;2.88;;
68942;SDS011;60852;52.190;4.422;2022-09-01T00:55:53;2.75;;;2.75;;
68942;SDS011;60852;52.190;4.422;2022-09-01T00:58:19;2.86;;;2.86;;
68942;SDS011;60852;52.190;4.422;2022-09-01T01:00:44;3.06;;;3.06;;
68942;SDS011;60852;52.190;4.422;2022-09-01T01:03:13;3.07;;;3.07;;
68942;SDS011;60852;52.190;4.422;2022-09-01T01:05:40;3.13;;;3.13;;
68942;SDS011;60852;52.190;4.422;2022-09-01T01:08:15;3.28;;;3.28;;
68942;SDS011;60852;52.190;4.422;2022-09-01T01:10:43;3.06;;;3.06;;
68942;SDS011;60852;52.190;4.422;2022-09-01T01:13:14;3.42;;;3.42;;
68942;SDS011;60852;52.190;4.422;2022-09-01T01:15:41;3.28;;;3.28;;
68942;SDS011;60852;52.190;4.422;2022-09-01T01:18:09;3.39;;;3.39;;
68942;SDS011;60852;52.190;4.422;2022-09-01T01:20:36;3.14;;;3.14;;
68942;SDS011;60852;52.190;4.422;2022-09-01T01:26:21;2.94;;;2.94;;
68942;SDS011;60852;52.190;4.422;2022-09-01T01:28:47;3.20;;;3.20;;
68942;SDS011;60852;52.190;4.422;2022-09-01T01:31:14;3.19;;;3.19;;
68942;SDS011;60852;52.190;4.422;2022-09-01T01:36:12;3.13;;;3.13;;
68942;SDS011;60852;52.190;4.422;2022-09-01T01:38:41;3.27;;;3.27;;
68942;SDS011;60852;52.190;4.422;2022-09-01T01:41:09;3.23;;;3.23;;
68942;SDS011;60852;52.190;4.422;2022-09-01T01:43:36;3.41;;;3.41;;
68942;SDS011;60852;52.190;4.422;2022-09-01T01:46:04;3.38;;;3.38;;
68942;SDS011;60852;52.190;4.422;2022-09-01T01:48:32;3.31;;;3.31;;
68942;SDS011;60852;52.190;4.422;2022-09-01T01:51:01;3.25;;;3.25;;
68942;SDS011;60852;52.190;4.422;2022-09-01T01:53:29;3.12;;;3.12;;
68942;SDS011;60852;52.190;4.422;2022-09-01T01:55:56;3.16;;;3.16;;
68942;SDS011;60852;52.190;4.422;2022-09-01T01:58:23;3.22;;;3.22;;
68942;SDS011;60852;52.190;4.422;2022-09-01T02:00:50;3.00;;;3.00;;
68942;SDS011;60852;52.190;4.422;2022-09-01T02:03:20;3.08;;;3.08;;
68942;SDS011;60852;52.190;4.422;2022-09-01T02:05:51;3.15;;;3.15;;
68942;SDS011;60852;52.190;4.422;2022-09-01T02:08:19;3.26;;;3.26;;
68942;SDS011;60852;52.190;4.422;2022-09-01T02:10:52;3.36;;;3.36;;
68942;SDS011;60852;52.190;4.422;2022-09-01T02:13:20;3.20;;;3.20;;
68942;SDS011;60852;52.190;4.422;2022-09-01T02:15:58;3.34;;;3.34;;
68942;SDS011;60852;52.190;4.422;2022-09-01T02:18:32;3.37;;;3.37;;
68942;SDS011;60852;52.190;4.422;2022-09-01T02:21:03;3.60;;;3.60;;
68942;SDS011;60852;52.190;4.422;2022-09-01T02:23:38;3.26;;;3.26;;
68942;SDS011;60852;52.190;4.422;2022-09-01T02:26:05;3.53;;;3.53;;
68942;SDS011;60852;52.190;4.422;2022-09-01T02:28:34;3.47;;;3.47;;
68942;SDS011;60852;52.190;4.422;2022-09-01T02:31:01;3.57;;;3.57;;
68942;SDS011;60852;52.190;4.422;2022-09-01T02:33:29;3.87;;;3.87;;
68942;SDS011;60852;52.190;4.422;2022-09-01T02:35:57;3.62;;;3.62;;
68942;SDS011;60852;52.190;4.422;2022-09-01T02:38:29;3.60;;;3.60;;
68942;SDS011;60852;52.190;4.422;2022-09-01T02:40:59;3.96;;;3.96;;
68942;SDS011;60852;52.190;4.422;2022-09-01T02:43:26;3.65;;;3.65;;
68942;SDS011;60852;52.190;4.422;2022-09-01T02:45:54;3.77;;;3.77;;
68942;SDS011;60852;52.190;4.422;2022-09-01T02:48:34;3.61;;;3.61;;
68942;SDS011;60852;52.190;4.422;2022-09-01T02:51:03;3.79;;;3.79;;
68942;SDS011;60852;52.190;4.422;2022-09-01T02:53:32;4.03;;;4.03;;
68942;SDS011;60852;52.190;4.422;2022-09-01T02:55:59;3.83;;;3.83;;
68942;SDS011;60852;52.190;4.422;2022-09-01T02:58:27;3.80;;;3.80;;
68942;SDS011;60852;52.190;4.422;2022-09-01T03:00:57;3.74;;;3.74;;
68942;SDS011;60852;52.190;4.422;2022-09-01T03:03:23;4.04;;;4.04;;
68942;SDS011;60852;52.190;4.422;2022-09-01T03:05:50;3.70;;;3.70;;
68942;SDS011;60852;52.190;4.422;2022-09-01T03:08:21;4.10;;;4.10;;
68942;SDS011;60852;52.190;4.422;2022-09-01T03:10:48;3.64;;;3.64;;
68942;SDS011;60852;52.190;4.422;2022-09-01T03:13:20;3.94;;;3.94;;
68942;SDS011;60852;52.190;4.422;2022-09-01T03:15:48;3.74;;;3.74;;
68942;SDS011;60852;52.190;4.422;2022-09-01T03:18:15;3.91;;;3.91;;
68942;SDS011;60852;52.190;4.422;2022-09-01T03:20:43;3.90;;;3.90;;
68942;SDS011;60852;52.190;4.422;2022-09-01T03:23:12;3.64;;;3.64;;
68942;SDS011;60852;52.190;4.422;2022-09-01T03:25:41;3.94;;;3.94;;
68942;SDS011;60852;52.190;4.422;2022-09-01T03:28:09;3.80;;;3.80;;
68942;SDS011;60852;52.190;4.422;2022-09-01T03:30:37;4.04;;;4.04;;
68942;SDS011;60852;52.190;4.422;2022-09-01T03:33:08;4.22;;;4.22;;
68942;SDS011;60852;52.190;4.422;2022-09-01T03:35:34;3.78;;;3.78;;
68942;SDS011;60852;52.190;4.422;2022-09-01T03:38:00;3.93;;;3.93;;
68942;SDS011;60852;52.190;4.422;2022-09-01T03:40:30;3.84;;;3.84;;
68942;SDS011;60852;52.190;4.422;2022-09-01T03:43:01;4.04;;;4.04;;
68942;SDS011;60852;52.190;4.422;2022-09-01T03:45:29;4.27;;;4.27;;
68942;SDS011;60852;52.190;4.422;2022-09-01T03:47:59;3.98;;;3.98;;
68942;SDS011;60852;52.190;4.422;2022-09-01T03:50:28;3.81;;;3.81;;
68942;SDS011;60852;52.190;4.422;2022-09-01T03:52:56;3.97;;;3.97;;
68942;SDS011;60852;52.190;4.422;2022-09-01T03:55:25;3.86;;;3.86;;
68942;SDS011;60852;52.190;4.422;2022-09-01T03:57:55;3.77;;;3.77;;
68942;SDS011;60852;52.190;4.422;2022-09-01T04:00:25;3.58;;;3.58;;
68942;SDS011;60852;52.190;4.422;2022-09-01T04:02:55;3.63;;;3.63;;
68942;SDS011;60852;52.190;4.422;2022-09-01T04:05:23;3.45;;;3.45;;
68942;SDS011;60852;52.190;4.422;2022-09-01T04:07:53;3.79;;;3.79;;
68942;SDS011;60852;52.190;4.422;2022-09-01T04:10:21;3.54;;;3.54;;
68942;SDS011;60852;52.190;4.422;2022-09-01T04:12:48;3.60;;;3.60;;
68942;SDS011;60852;52.190;4.422;2022-09-01T04:15:15;3.40;;;3.40;;
68942;SDS011;60852;52.190;4.422;2022-09-01T04:17:42;3.49;;;3.49;;
68942;SDS011;60852;52.190;4.422;2022-09-01T04:20:27;3.55;;;3.55;;
68942;SDS011;60852;52.190;4.422;2022-09-01T04:22:53;3.68;;;3.68;;
68942;SDS011;60852;52.190;4.422;2022-09-01T04:25:19;3.85;;;3.85;;
68942;SDS011;60852;52.190;4.422;2022-09-01T04:27:52;4.02;;;4.02;;
68942;SDS011;60852;52.190;4.422;2022-09-01T04:30:21;3.76;;;3.76;;
68942;SDS011;60852;52.190;4.422;2022-09-01T04:32:51;3.91;;;3.91;;
68942;SDS011;60852;52.190;4.422;2022-09-01T04:35:21;3.89;;;3.89;;
68942;SDS011;60852;52.190;4.422;2022-09-01T04:37:56;3.81;;;3.81;;
68942;SDS011;60852;52.190;4.422;2022-09-01T04:40:25;3.96;;;3.96;;
68942;SDS011;60852;52.190;4.422;2022-09-01T04:42:51;3.98;;;3.98;;
68942;SDS011;60852;52.190;4.422;2022-09-01T04:45:16;3.94;;;3.94;;
68942;SDS011;60852;52.190;4.422;2022-09-01T04:47:44;3.82;;;3.82;;
68942;SDS011;60852;52.190;4.422;2022-09-01T04:50:10;3.74;;;3.74;;
68942;SDS011;60852;52.190;4.422;2022-09-01T04:52:41;3.52;;;3.52;;
68942;SDS011;60852;52.190;4.422;2022-09-01T04:55:11;3.93;;;3.93;;
68942;SDS011;60852;52.190;4.422;2022-09-01T04:57:45;3.90;;;3.90;;
68942;SDS011;60852;52.190;4.422;2022-09-01T05:00:23;4.02;;;4.02;;
68942;SDS011;60852;52.190;4.422;2022-09-01T05:02:52;4.04;;;4.04;;
68942;SDS011;60852;52.190;4.422;2022-09-01T05:05:27;3.86;;;3.86;;
68942;SDS011;60852;52.190;4.422;2022-09-01T05:08:03;3.58;;;3.58;;
68942;SDS011;60852;52.190;4.422;2022-09-01T05:10:29;3.62;;;3.62;;
68942;SDS011;60852;52.190;4.422;2022-09-01T05:12:57;3.65;;;3.65;;
68942;SDS011;60852;52.190;4.422;2022-09-01T05:15:22;3.68;;;3.68;;
68942;SDS011;60852;52.190;4.422;2022-09-01T05:17:48;3.61;;;3.61;;
68942;SDS011;60852;52.190;4.422;2022-09-01T05:20:13;3.48;;;3.48;;
68942;SDS011;60852;52.190;4.422;2022-09-01T05:22:40;3.63;;;3.63;;
68942;SDS011;60852;52.190;4.422;2022-09-01T05:25:07;3.50;;;3.50;;
68942;SDS011;60852;52.190;4.422;2022-09-01T05:27:42;3.56;;;3.56;;
68942;SDS011;60852;52.190;4.422;2022-09-01T05:30:14;3.66;;;3.66;;
68942;SDS011;60852;52.190;4.422;2022-09-01T05:32:42;3.73;;;3.73;;
68942;SDS011;60852;52.190;4.422;2022-09-01T05:35:07;3.70;;;3.70;;
68942;SDS011;60852;52.190;4.422;2022-09-01T05:37:34;3.97;;;3.97;;
68942;SDS011;60852;52.190;4.422;2022-09-01T05:40:03;3.49;;;3.49;;
68942;SDS011;60852;52.190;4.422;2022-09-01T05:42:33;3.74;;;3.74;;
68942;SDS011;60852;52.190;4.422;2022-09-01T05:44:59;3.37;;;3.37;;
68942;SDS011;60852;52.190;4.422;2022-09-01T05:47:26;3.49;;;3.49;;
68942;SDS011;60852;52.190;4.422;2022-09-01T05:49:52;3.27;;;3.27;;
68942;SDS011;60852;52.190;4.422;2022-09-01T05:52:20;3.52;;;3.52;;
68942;SDS011;60852;52.190;4.422;2022-09-01T05:54:49;3.25;;;3.25;;
68942;SDS011;60852;52.190;4.422;2022-09-01T05:57:16;3.21;;;3.21;;
68942;SDS011;60852;52.190;4.422;2022-09-01T05:59:42;3.31;;;3.31;;
68942;SDS011;60852;52.190;4.422;2022-09-01T06:02:07;3.56;;;3.56;;
68942;SDS011;60852;52.190;4.422;2022-09-01T06:04:33;3.49;;;3.49;;
68942;SDS011;60852;52.190;4.422;2022-09-01T06:06:59;3.46;;;3.46;;
68942;SDS011;60852;52.190;4.422;2022-09-01T06:09:26;3.58;;;3.58;;
68942;SDS011;60852;52.190;4.422;2022-09-01T06:11:51;3.58;;;3.58;;
68942;SDS011;60852;52.190;4.422;2022-09-01T06:14:21;3.44;;;3.44;;
68942;SDS011;60852;52.190;4.422;2022-09-01T06:16:46;3.22;;;3.22;;
68942;SDS011;60852;52.190;4.422;2022-09-01T06:19:11;3.36;;;3.36;;
68942;SDS011;60852;52.190;4.422;2022-09-01T06:21:37;3.41;;;3.41;;
68942;SDS011;60852;52.190;4.422;2022-09-01T06:24:03;3.58;;;3.58;;
68942;SDS011;60852;52.190;4.422;2022-09-01T06:26:31;3.26;;;3.26;;
68942;SDS011;60852;52.190;4.422;2022-09-01T06:29:00;3.48;;;3.48;;
68942;SDS011;60852;52.190;4.422;2022-09-01T06:31:29;3.81;;;3.81;;
68942;SDS011;60852;52.190;4.422;2022-09-01T06:34:03;3.70;;;3.70;;
68942;SDS011;60852;52.190;4.422;2022-09-01T06:36:33;3.66;;;3.66;;
68942;SDS011;60852;52.190;4.422;2022-09-01T06:39:01;3.34;;;3.34;;
68942;SDS011;60852;52.190;4.422;2022-09-01T06:41:28;3.27;;;3.27;;
68942;SDS011;60852;52.190;4.422;2022-09-01T06:43:55;3.30;;;3.30;;
68942;SDS011;60852;52.190;4.422;2022-09-01T06:46:21;3.62;;;3.62;;
68942;SDS011;60852;52.190;4.422;2022-09-01T06:48:48;3.37;;;3.37;;
68942;SDS011;60852;52.190;4.422;2022-09-01T06:51:15;2.96;;;2.96;;
68942;SDS011;60852;52.190;4.422;2022-09-01T06:53:43;2.67;;;2.67;;
68942;SDS011;60852;52.190;4.422;2022-09-01T06:56:14;2.70;;;2.70;;
68942;SDS011;60852;52.190;4.422;2022-09-01T06:58:42;2.77;;;2.77;;
68942;SDS011;60852;52.190;4.422;2022-09-01T07:01:13;2.69;;;2.69;;
68942;SDS011;60852;52.190;4.422;2022-09-01T07:03:44;2.99;;;2.99;;
68942;SDS011;60852;52.190;4.422;2022-09-01T07:06:12;2.86;;;2.86;;
68942;SDS011;60852;52.190;4.422;2022-09-01T07:08:39;5.10;;;5.09;;
68942;SDS011;60852;52.190;4.422;2022-09-01T07:11:17;3.09;;;3.07;;
68942;SDS011;60852;52.190;4.422;2022-09-01T07:13:51;2.67;;;2.67;;
68942;SDS011;60852;52.190;4.422;2022-09-01T07:16:21;2.84;;;2.84;;
68942;SDS011;60852;52.190;4.422;2022-09-01T07:18:48;2.86;;;2.86;;
68942;SDS011;60852;52.190;4.422;2022-09-01T07:21:15;2.72;;;2.72;;
68942;SDS011;60852;52.190;4.422;2022-09-01T07:23:42;2.63;;;2.63;;
68942;SDS011;60852;52.190;4.422;2022-09-01T07:26:08;2.69;;;2.69;;
68942;SDS011;60852;52.190;4.422;2022-09-01T07:28:35;2.85;;;2.85;;
68942;SDS011;60852;52.190;4.422;2022-09-01T07:31:01;2.78;;;2.78;;
68942;SDS011;60852;52.190;4.422;2022-09-01T07:33:28;2.78;;;2.78;;
68942;SDS011;60852;52.190;4.422;2022-09-01T07:35:55;2.85;;;2.85;;
68942;SDS011;60852;52.190;4.422;2022-09-01T07:38:21;2.64;;;2.64;;
68942;SDS011;60852;52.190;4.422;2022-09-01T07:40:48;2.73;;;2.73;;
68942;SDS011;60852;52.190;4.422;2022-09-01T07:43:21;2.92;;;2.92;;
68942;SDS011;60852;52.190;4.422;2022-09-01T07:45:50;2.95;;;2.95;;
68942;SDS011;60852;52.190;4.422;2022-09-01T07:48:20;3.02;;;3.02;;
68942;SDS011;60852;52.190;4.422;2022-09-01T07:50:49;3.22;;;3.22;;
68942;SDS011;60852;52.190;4.422;2022-09-01T07:53:22;3.14;;;3.14;;
68942;SDS011;60852;52.190;4.422;2022-09-01T07:55:55;2.99;;;2.99;;
68942;SDS011;60852;52.190;4.422;2022-09-01T07:58:24;3.32;;;3.32;;
68942;SDS011;60852;52.190;4.422;2022-09-01T08:00:51;3.15;;;3.15;;
68942;SDS011;60852;52.190;4.422;2022-09-01T08:03:19;3.20;;;3.20;;
68942;SDS011;60852;52.190;4.422;2022-09-01T08:05:48;3.09;;;3.09;;
68942;SDS011;60852;52.190;4.422;2022-09-01T08:08:19;3.18;;;3.18;;
68942;SDS011;60852;52.190;4.422;2022-09-01T08:10:45;3.26;;;3.26;;
68942;SDS011;60852;52.190;4.422;2022-09-01T08:13:13;2.98;;;2.98;;
68942;SDS011;60852;52.190;4.422;2022-09-01T08:15:39;3.87;;;3.87;;
68942;SDS011;60852;52.190;4.422;2022-09-01T08:18:05;3.43;;;3.40;;
68942;SDS011;60852;52.190;4.422;2022-09-01T08:20:31;3.35;;;3.35;;
68942;SDS011;60852;52.190;4.422;2022-09-01T08:23:02;3.51;;;3.51;;
68942;SDS011;60852;52.190;4.422;2022-09-01T08:25:28;3.19;;;3.19;;
68942;SDS011;60852;52.190;4.422;2022-09-01T08:27:54;3.21;;;3.21;;
68942;SDS011;60852;52.190;4.422;2022-09-01T08:30:21;3.50;;;3.50;;
68942;SDS011;60852;52.190;4.422;2022-09-01T08:32:47;3.35;;;3.35;;
68942;SDS011;60852;52.190;4.422;2022-09-01T08:35:13;3.50;;;3.50;;
68942;SDS011;60852;52.190;4.422;2022-09-01T08:37:40;3.51;;;3.51;;
68942;SDS011;60852;52.190;4.422;2022-09-01T08:40:09;3.13;;;3.13;;
68942;SDS011;60852;52.190;4.422;2022-09-01T08:45:24;3.23;;;3.23;;
68942;SDS011;60852;52.190;4.422;2022-09-01T08:47:56;3.58;;;3.58;;
68942;SDS011;60852;52.190;4.422;2022-09-01T08:50:29;3.31;;;3.31;;
68942;SDS011;60852;52.190;4.422;2022-09-01T08:53:02;3.11;;;3.11;;
68942;SDS011;60852;52.190;4.422;2022-09-01T08:55:56;3.30;;;3.30;;
68942;SDS011;60852;52.190;4.422;2022-09-01T08:58:24;3.21;;;3.21;;
68942;SDS011;60852;52.190;4.422;2022-09-01T09:01:02;3.00;;;3.00;;
68942;SDS011;60852;52.190;4.422;2022-09-01T09:03:48;3.28;;;3.28;;
68942;SDS011;60852;52.190;4.422;2022-09-01T09:06:56;3.26;;;3.26;;
68942;SDS011;60852;52.190;4.422;2022-09-01T09:09:29;3.39;;;3.39;;
68942;SDS011;60852;52.190;4.422;2022-09-01T09:12:17;3.18;;;3.18;;
68942;SDS011;60852;52.190;4.422;2022-09-01T09:15:00;3.00;;;3.00;;
68942;SDS011;60852;52.190;4.422;2022-09-01T09:17:40;4.64;;;4.64;;
68942;SDS011;60852;52.190;4.422;2022-09-01T09:20:14;3.22;;;3.22;;
68942;SDS011;60852;52.190;4.422;2022-09-01T09:22:42;3.21;;;3.21;;
68942;SDS011;60852;52.190;4.422;2022-09-01T09:25:13;3.24;;;3.24;;
68942;SDS011;60852;52.190;4.422;2022-09-01T09:27:42;2.96;;;2.96;;
68942;SDS011;60852;52.190;4.422;2022-09-01T09:30:20;2.94;;;2.94;;
68942;SDS011;60852;52.190;4.422;2022-09-01T09:35:37;2.81;;;2.81;;
68942;SDS011;60852;52.190;4.422;2022-09-01T09:38:20;2.91;;;2.91;;
68942;SDS011;60852;52.190;4.422;2022-09-01T09:43:24;2.83;;;2.83;;
68942;SDS011;60852;52.190;4.422;2022-09-01T09:45:52;2.93;;;2.93;;
68942;SDS011;60852;52.190;4.422;2022-09-01T09:51:29;3.00;;;3.00;;
68942;SDS011;60852;52.190;4.422;2022-09-01T09:54:09;2.84;;;2.84;;
68942;SDS011;60852;52.190;4.422;2022-09-01T09:56:36;2.66;;;2.66;;
68942;SDS011;60852;52.190;4.422;2022-09-01T09:59:14;2.78;;;2.78;;
68942;SDS011;60852;52.190;4.422;2022-09-01T10:01:45;2.71;;;2.71;;
68942;SDS011;60852;52.190;4.422;2022-09-01T10:04:30;2.40;;;2.40;;
68942;SDS011;60852;52.190;4.422;2022-09-01T10:07:01;2.16;;;2.16;;
68942;SDS011;60852;52.190;4.422;2022-09-01T10:09:55;2.39;;;2.39;;
68942;SDS011;60852;52.190;4.422;2022-09-01T10:12:24;2.44;;;2.44;;
68942;SDS011;60852;52.190;4.422;2022-09-01T10:14:53;2.18;;;2.18;;
68942;SDS011;60852;52.190;4.422;2022-09-01T10:20:27;2.32;;;2.32;;
68942;SDS011;60852;52.190;4.422;2022-09-01T10:22:52;2.16;;;2.16;;
68942;SDS011;60852;52.190;4.422;2022-09-01T10:25:19;2.07;;;2.07;;
68942;SDS011;60852;52.190;4.422;2022-09-01T10:27:50;2.09;;;2.09;;
68942;SDS011;60852;52.190;4.422;2022-09-01T10:30:26;2.28;;;2.28;;
68942;SDS011;60852;52.190;4.422;2022-09-01T10:32:55;2.09;;;2.09;;
68942;SDS011;60852;52.190;4.422;2022-09-01T10:35:27;2.14;;;2.14;;
68942;SDS011;60852;52.190;4.422;2022-09-01T10:37:55;2.05;;;2.05;;
68942;SDS011;60852;52.190;4.422;2022-09-01T10:40:38;2.13;;;2.13;;
68942;SDS011;60852;52.190;4.422;2022-09-01T10:45:59;1.99;;;1.99;;
68942;SDS011;60852;52.190;4.422;2022-09-01T10:48:25;1.84;;;1.84;;
68942;SDS011;60852;52.190;4.422;2022-09-01T10:53:46;1.86;;;1.86;;
68942;SDS011;60852;52.190;4.422;2022-09-01T10:56:18;1.72;;;1.72;;
68942;SDS011;60852;52.190;4.422;2022-09-01T11:04:17;1.61;;;1.61;;
68942;SDS011;60852;52.190;4.422;2022-09-01T11:07:00;1.88;;;1.88;;
68942;SDS011;60852;52.190;4.422;2022-09-01T11:17:23;1.89;;;1.89;;
68942;SDS011;60852;52.190;4.422;2022-09-01T11:22:24;1.96;;;1.96;;
68942;SDS011;60852;52.190;4.422;2022-09-01T11:30:19;1.78;;;1.78;;
68942;SDS011;60852;52.190;4.422;2022-09-01T11:33:00;1.94;;;1.94;;
68942;SDS011;60852;52.190;4.422;2022-09-01T11:35:40;1.87;;;1.87;;
68942;SDS011;60852;52.190;4.422;2022-09-01T11:38:11;1.83;;;1.83;;
68942;SDS011;60852;52.190;4.422;2022-09-01T11:40:40;2.05;;;2.05;;
68942;SDS011;60852;52.190;4.422;2022-09-01T11:43:08;1.87;;;1.87;;
68942;SDS011;60852;52.190;4.422;2022-09-01T11:48:26;1.83;;;1.83;;
68942;SDS011;60852;52.190;4.422;2022-09-01T11:50:59;1.88;;;1.88;;
68942;SDS011;60852;52.190;4.422;2022-09-01T11:53:27;2.04;;;2.04;;
68942;SDS011;60852;52.190;4.422;2022-09-01T11:55:55;1.70;;;1.70;;
68942;SDS011;60852;52.190;4.422;2022-09-01T11:58:39;1.88;;;1.88;;
68942;SDS011;60852;52.190;4.422;2022-09-01T12:03:37;1.78;;;1.78;;
68942;SDS011;60852;52.190;4.422;2022-09-01T12:06:04;1.99;;;1.99;;
68942;SDS011;60852;52.190;4.422;2022-09-01T12:08:36;1.68;;;1.68;;
68942;SDS011;60852;52.190;4.422;2022-09-01T12:14:04;1.63;;;1.63;;
68942;SDS011;60852;52.190;4.422;2022-09-01T12:16:34;1.62;;;1.62;;
68942;SDS011;60852;52.190;4.422;2022-09-01T12:19:02;1.54;;;1.54;;
68942;SDS011;60852;52.190;4.422;2022-09-01T12:24:12;1.60;;;1.60;;
68942;SDS011;60852;52.190;4.422;2022-09-01T12:26:42;1.50;;;1.50;;
68942;SDS011;60852;52.190;4.422;2022-09-01T12:29:10;1.43;;;1.43;;
68942;SDS011;60852;52.190;4.422;2022-09-01T12:31:41;1.73;;;1.73;;
68942;SDS011;60852;52.190;4.422;2022-09-01T12:39:40;1.56;;;1.56;;
68942;SDS011;60852;52.190;4.422;2022-09-01T12:44:44;1.78;;;1.78;;
68942;SDS011;60852;52.190;4.422;2022-09-01T12:49:57;1.62;;;1.62;;
68942;SDS011;60852;52.190;4.422;2022-09-01T12:52:24;1.59;;;1.59;;
68942;SDS011;60852;52.190;4.422;2022-09-01T12:55:05;1.85;;;1.85;;
68942;SDS011;60852;52.190;4.422;2022-09-01T12:57:39;1.71;;;1.71;;
68942;SDS011;60852;52.190;4.422;2022-09-01T13:00:14;1.67;;;1.67;;
68942;SDS011;60852;52.190;4.422;2022-09-01T13:02:48;1.66;;;1.66;;
68942;SDS011;60852;52.190;4.422;2022-09-01T13:05:30;1.80;;;1.80;;
68942;SDS011;60852;52.190;4.422;2022-09-01T13:08:00;1.52;;;1.52;;
68942;SDS011;60852;52.190;4.422;2022-09-01T13:10:47;1.49;;;1.49;;
68942;SDS011;60852;52.190;4.422;2022-09-01T13:13:14;1.60;;;1.60;;
68942;SDS011;60852;52.190;4.422;2022-09-01T13:15:45;1.41;;;1.41;;
68942;SDS011;60852;52.190;4.422;2022-09-01T13:18:18;1.38;;;1.38;;
68942;SDS011;60852;52.190;4.422;2022-09-01T13:20:46;1.63;;;1.63;;
68942;SDS011;60852;52.190;4.422;2022-09-01T13:23:12;1.43;;;1.43;;
68942;SDS011;60852;52.190;4.422;2022-09-01T13:25:38;1.35;;;1.35;;
68942;SDS011;60852;52.190;4.422;2022-09-01T13:28:05;1.41;;;1.41;;
68942;SDS011;60852;52.190;4.422;2022-09-01T13:30:32;1.41;;;1.41;;
68942;SDS011;60852;52.190;4.422;2022-09-01T13:32:59;1.78;;;1.78;;
68942;SDS011;60852;52.190;4.422;2022-09-01T13:35:24;1.63;;;1.63;;
68942;SDS011;60852;52.190;4.422;2022-09-01T13:37:50;1.43;;;1.43;;
68942;SDS011;60852;52.190;4.422;2022-09-01T13:40:16;1.55;;;1.55;;
68942;SDS011;60852;52.190;4.422;2022-09-01T13:42:45;1.53;;;1.53;;
68942;SDS011;60852;52.190;4.422;2022-09-01T13:45:16;1.49;;;1.49;;
68942;SDS011;60852;52.190;4.422;2022-09-01T13:47:44;1.64;;;1.64;;
68942;SDS011;60852;52.190;4.422;2022-09-01T13:50:12;1.71;;;1.71;;
68942;SDS011;60852;52.190;4.422;2022-09-01T13:52:40;1.61;;;1.61;;
68942;SDS011;60852;52.190;4.422;2022-09-01T13:55:12;1.57;;;1.57;;
68942;SDS011;60852;52.190;4.422;2022-09-01T13:57:40;1.65;;;1.65;;
68942;SDS011;60852;52.190;4.422;2022-09-01T14:00:07;1.98;;;1.98;;
68942;SDS011;60852;52.190;4.422;2022-09-01T14:02:39;3.14;;;3.13;;
68942;SDS011;60852;52.190;4.422;2022-09-01T14:05:13;4.12;;;4.08;;
68942;SDS011;60852;52.190;4.422;2022-09-01T14:07:39;6.97;;;6.89;;
68942;SDS011;60852;52.190;4.422;2022-09-01T14:10:05;7.55;;;7.43;;
68942;SDS011;60852;52.190;4.422;2022-09-01T14:12:31;5.61;;;5.57;;
68942;SDS011;60852;52.190;4.422;2022-09-01T14:14:57;3.92;;;3.88;;
68942;SDS011;60852;52.190;4.422;2022-09-01T14:17:23;3.39;;;3.37;;
68942;SDS011;60852;52.190;4.422;2022-09-01T14:19:48;2.25;;;2.24;;
68942;SDS011;60852;52.190;4.422;2022-09-01T14:22:15;1.79;;;1.79;;
68942;SDS011;60852;52.190;4.422;2022-09-01T14:24:40;2.79;;;2.78;;
68942;SDS011;60852;52.190;4.422;2022-09-01T14:27:06;2.97;;;2.95;;
68942;SDS011;60852;52.190;4.422;2022-09-01T14:29:31;2.43;;;2.41;;
68942;SDS011;60852;52.190;4.422;2022-09-01T14:31:56;2.26;;;2.25;;
68942;SDS011;60852;52.190;4.422;2022-09-01T14:34:23;1.87;;;1.86;;
68942;SDS011;60852;52.190;4.422;2022-09-01T14:36:49;1.46;;;1.46;;
68942;SDS011;60852;52.190;4.422;2022-09-01T14:39:17;1.46;;;1.46;;
68942;SDS011;60852;52.190;4.422;2022-09-01T14:41:42;1.50;;;1.50;;
68942;SDS011;60852;52.190;4.422;2022-09-01T14:44:08;1.35;;;1.35;;
68942;SDS011;60852;52.190;4.422;2022-09-01T14:46:33;1.29;;;1.29;;
68942;SDS011;60852;52.190;4.422;2022-09-01T14:49:00;1.31;;;1.31;;
68942;SDS011;60852;52.190;4.422;2022-09-01T14:51:28;1.55;;;1.55;;
68942;SDS011;60852;52.190;4.422;2022-09-01T14:53:55;1.31;;;1.31;;
68942;SDS011;60852;52.190;4.422;2022-09-01T14:56:22;1.39;;;1.39;;
68942;SDS011;60852;52.190;4.422;2022-09-01T14:58:49;1.46;;;1.46;;
68942;SDS011;60852;52.190;4.422;2022-09-01T15:01:16;1.19;;;1.19;;
68942;SDS011;60852;52.190;4.422;2022-09-01T15:03:45;1.22;;;1.22;;
68942;SDS011;60852;52.190;4.422;2022-09-01T15:06:11;1.11;;;1.11;;
68942;SDS011;60852;52.190;4.422;2022-09-01T15:08:38;1.41;;;1.41;;
68942;SDS011;60852;52.190;4.422;2022-09-01T15:11:08;1.29;;;1.29;;
68942;SDS011;60852;52.190;4.422;2022-09-01T15:13:39;1.40;;;1.40;;
68942;SDS011;60852;52.190;4.422;2022-09-01T15:16:11;1.34;;;1.34;;
68942;SDS011;60852;52.190;4.422;2022-09-01T15:18:42;1.25;;;1.25;;
68942;SDS011;60852;52.190;4.422;2022-09-01T15:21:16;1.94;;;1.94;;
68942;SDS011;60852;52.190;4.422;2022-09-01T15:23:46;1.41;;;1.41;;
68942;SDS011;60852;52.190;4.422;2022-09-01T15:26:13;1.48;;;1.48;;
68942;SDS011;60852;52.190;4.422;2022-09-01T15:28:40;1.48;;;1.48;;
68942;SDS011;60852;52.190;4.422;2022-09-01T15:31:05;1.31;;;1.31;;
68942;SDS011;60852;52.190;4.422;2022-09-01T15:33:31;1.40;;;1.40;;
68942;SDS011;60852;52.190;4.422;2022-09-01T15:35:56;1.30;;;1.30;;
68942;SDS011;60852;52.190;4.422;2022-09-01T15:38:22;1.40;;;1.40;;
68942;SDS011;60852;52.190;4.422;2022-09-01T15:40:47;1.60;;;1.60;;
68942;SDS011;60852;52.190;4.422;2022-09-01T15:43:13;1.68;;;1.68;;
68942;SDS011;60852;52.190;4.422;2022-09-01T15:45:39;1.41;;;1.41;;
68942;SDS011;60852;52.190;4.422;2022-09-01T15:48:05;1.50;;;1.50;;
68942;SDS011;60852;52.190;4.422;2022-09-01T15:50:31;1.41;;;1.41;;
68942;SDS011;60852;52.190;4.422;2022-09-01T15:52:58;1.42;;;1.42;;
68942;SDS011;60852;52.190;4.422;2022-09-01T15:55:27;1.35;;;1.35;;
68942;SDS011;60852;52.190;4.422;2022-09-01T15:57:55;1.34;;;1.34;;
68942;SDS011;60852;52.190;4.422;2022-09-01T16:00:22;1.38;;;1.38;;
68942;SDS011;60852;52.190;4.422;2022-09-01T16:02:49;1.40;;;1.40;;
68942;SDS011;60852;52.190;4.422;2022-09-01T16:05:14;1.28;;;1.28;;
68942;SDS011;60852;52.190;4.422;2022-09-01T16:07:42;1.58;;;1.58;;
68942;SDS011;60852;52.190;4.422;2022-09-01T16:10:08;1.49;;;1.49;;